Time;durP1;ratioP1;P1;durP2;ratioP2;P2;SDS_P1;SDS_P2;PMS_P1;PMS_P2;Temp;Humidity;BMP_temperature;BMP_pressure;BME280_temperature;BME280_humidity;BME280_pressure;Samples;Min_cycle;Max_cycle;Signal;HPM_P1;HPM_P2
2022/05/28 00:01:43;;;;;;;6.78;4.83;;;;;;;;;;1960055;73;21091;-60
2022/05/28 00:04:13;;;;;;;5.95;4.85;;;;;;;;;;1960013;72;21083;-60
2022/05/28 00:06:42;;;;;;;7.62;4.30;;;;;;;;;;1960100;73;21088;-59
2022/05/28 00:09:10;;;;;;;5.53;4.87;;;;;;;;;;1960031;73;21072;-59
2022/05/28 00:11:41;;;;;;;6.10;4.40;;;;;;;;;;1960058;73;21091;-59
2022/05/28 00:14:10;;;;;;;5.17;4.67;;;;;;;;;;1960071;73;21014;-59
2022/05/28 00:16:39;;;;;;;6.15;4.45;;;;;;;;;;1960140;73;21009;-59
2022/05/28 00:19:08;;;;;;;9.63;5.12;;;;;;;;;;1959982;72;21076;-59
2022/05/28 00:21:37;;;;;;;6.28;3.95;;;;;;;;;;1960072;73;21060;-59
2022/05/28 00:24:06;;;;;;;4.97;3.90;;;;;;;;;;1959826;72;21060;-58
2022/05/28 00:26:35;;;;;;;6.37;3.85;;;;;;;;;;1957731;73;21011;-59
2022/05/28 00:29:04;;;;;;;3.95;3.55;;;;;;;;;;1957694;73;21110;-59
2022/05/28 00:31:33;;;;;;;5.45;3.83;;;;;;;;;;1957798;73;21011;-59
2022/05/28 00:34:02;;;;;;;4.75;3.65;;;;;;;;;;1957685;73;21043;-59
2022/05/28 00:36:31;;;;;;;3.52;3.20;;;;;;;;;;1957703;73;21097;-59
2022/05/28 00:38:59;;;;;;;6.40;3.47;;;;;;;;;;1957803;73;21023;-60
2022/05/28 00:41:28;;;;;;;4.62;3.77;;;;;;;;;;1957790;73;21031;-59
2022/05/28 00:43:57;;;;;;;3.90;3.15;;;;;;;;;;1957803;73;21132;-60
2022/05/28 00:46:27;;;;;;;5.47;3.35;;;;;;;;;;1957717;73;21097;-59
2022/05/28 00:48:59;;;;;;;4.00;3.60;;;;;;;;;;1957661;73;21078;-59
2022/05/28 00:51:29;;;;;;;5.70;3.35;;;;;;;;;;1957787;73;21453;-60
2022/05/28 00:53:59;;;;;;;4.20;3.02;;;;;;;;;;1957803;73;21089;-59
2022/05/28 00:56:28;;;;;;;7.17;3.85;;;;;;;;;;1957785;73;21077;-60
2022/05/28 00:58:58;;;;;;;7.90;3.40;;;;;;;;;;1957760;73;21105;-59
2022/05/28 01:01:29;;;;;;;4.70;3.40;;;;;;;;;;1957767;73;21063;-60
2022/05/28 01:04:05;;;;;;;3.87;3.55;;;;;;;;;;1957741;73;21003;-60
2022/05/28 01:06:47;;;;;;;4.03;3.27;;;;;;;;;;1957590;72;21509;-60
2022/05/28 01:09:32;;;;;;;5.28;3.12;;;;;;;;;;1936334;73;21163;-59
2022/05/28 01:12:18;;;;;;;6.08;4.37;;;;;;;;;;1957359;73;21019;-60
2022/05/28 01:14:54;;;;;;;5.08;3.42;;;;;;;;;;1957816;73;21046;-60
2022/05/28 01:17:24;;;;;;;3.55;3.25;;;;;;;;;;1957797;73;21039;-59
2022/05/28 01:20:06;;;;;;;4.25;2.98;;;;;;;;;;1957403;72;21109;-60
2022/05/28 01:22:36;;;;;;;5.05;2.90;;;;;;;;;;1957896;73;20987;-60
2022/05/28 01:25:09;;;;;;;4.05;3.40;;;;;;;;;;1958254;73;21033;-59
2022/05/28 01:27:48;;;;;;;5.08;2.90;;;;;;;;;;1963285;73;21001;-60
2022/05/28 01:30:17;;;;;;;3.30;3.00;;;;;;;;;;1963900;73;21064;-60
2022/05/28 01:32:47;;;;;;;3.55;3.25;;;;;;;;;;1964055;73;20990;-60
2022/05/28 01:35:16;;;;;;;5.08;3.08;;;;;;;;;;1964005;73;21005;-59
2022/05/28 01:37:46;;;;;;;3.40;2.95;;;;;;;;;;1963985;73;21021;-59
2022/05/28 01:40:15;;;;;;;4.35;3.12;;;;;;;;;;1963942;73;21005;-60
2022/05/28 01:42:45;;;;;;;5.87;3.35;;;;;;;;;;1963966;73;21017;-60
2022/05/28 01:45:15;;;;;;;4.97;3.10;;;;;;;;;;1964010;73;20978;-59
2022/05/28 01:47:44;;;;;;;3.15;2.85;;;;;;;;;;1964008;73;21412;-59
2022/05/28 01:50:14;;;;;;;3.77;3.17;;;;;;;;;;1963886;73;21021;-59
2022/05/28 01:52:43;;;;;;;5.12;2.67;;;;;;;;;;1963935;72;20989;-60
2022/05/28 01:55:13;;;;;;;3.77;2.90;;;;;;;;;;1963913;73;21014;-60
2022/05/28 01:57:42;;;;;;;5.80;3.33;;;;;;;;;;1963884;73;21029;-60
2022/05/28 02:00:11;;;;;;;5.37;3.05;;;;;;;;;;1963881;73;21009;-59
2022/05/28 02:02:40;;;;;;;6.78;3.80;;;;;;;;;;1963876;73;21025;-59
2022/05/28 02:05:10;;;;;;;6.17;4.00;;;;;;;;;;1963721;73;21053;-60
2022/05/28 02:07:38;;;;;;;8.23;3.80;;;;;;;;;;1963783;73;21056;-60
2022/05/28 02:10:08;;;;;;;3.35;2.77;;;;;;;;;;1963758;73;21138;-59
2022/05/28 02:12:47;;;;;;;5.60;3.90;;;;;;;;;;1962766;72;21122;-60
2022/05/28 02:15:20;;;;;;;3.65;3.08;;;;;;;;;;1963905;73;20982;-60
2022/05/28 02:17:53;;;;;;;4.83;2.80;;;;;;;;;;1959358;73;21001;-59
2022/05/28 02:20:26;;;;;;;5.53;3.10;;;;;;;;;;1963788;73;21025;-60
2022/05/28 02:22:56;;;;;;;4.87;3.40;;;;;;;;;;1963481;73;21067;-60
2022/05/28 02:25:26;;;;;;;4.45;3.02;;;;;;;;;;1962986;72;21033;-60
2022/05/28 02:27:56;;;;;;;7.03;3.20;;;;;;;;;;1958677;72;21001;-60
2022/05/28 02:30:25;;;;;;;4.25;3.25;;;;;;;;;;1960164;73;21041;-60
2022/05/28 02:33:01;;;;;;;7.75;3.55;;;;;;;;;;1960130;73;21087;-60
2022/05/28 02:35:30;;;;;;;3.90;3.00;;;;;;;;;;1960062;73;21558;-60
2022/05/28 02:37:59;;;;;;;4.10;3.02;;;;;;;;;;1960103;73;21002;-60
2022/05/28 02:40:28;;;;;;;6.67;2.72;;;;;;;;;;1960078;73;21106;-60
2022/05/28 02:42:57;;;;;;;4.28;2.98;;;;;;;;;;1960200;73;21126;-60
2022/05/28 02:45:25;;;;;;;5.10;3.12;;;;;;;;;;1960131;73;21087;-60
2022/05/28 02:47:56;;;;;;;5.17;3.12;;;;;;;;;;1960177;73;21471;-60
2022/05/28 02:50:28;;;;;;;9.90;3.00;;;;;;;;;;1960077;73;21455;-60
2022/05/28 02:52:56;;;;;;;16.55;3.87;;;;;;;;;;1960206;73;21009;-60
2022/05/28 02:55:25;;;;;;;4.90;2.90;;;;;;;;;;1960071;73;21067;-60
2022/05/28 02:57:54;;;;;;;4.45;2.92;;;;;;;;;;1960108;72;21017;-60
2022/05/28 03:00:23;;;;;;;4.10;2.95;;;;;;;;;;1960103;73;21083;-60
2022/05/28 03:02:52;;;;;;;4.75;3.25;;;;;;;;;;1960110;72;21079;-60
2022/05/28 03:05:21;;;;;;;4.72;2.80;;;;;;;;;;1960154;73;21060;-60
2022/05/28 03:07:50;;;;;;;3.50;2.90;;;;;;;;;;1960133;73;21083;-60
2022/05/28 03:10:19;;;;;;;3.00;2.80;;;;;;;;;;1960070;73;20998;-60
2022/05/28 03:12:48;;;;;;;3.10;2.77;;;;;;;;;;1960112;73;21103;-60
2022/05/28 03:15:17;;;;;;;4.35;2.83;;;;;;;;;;1960203;73;21049;-60
2022/05/28 03:17:46;;;;;;;2.80;2.60;;;;;;;;;;1960107;73;21001;-60
2022/05/28 03:20:15;;;;;;;5.10;2.67;;;;;;;;;;1960175;73;21022;-60
2022/05/28 03:22:44;;;;;;;4.33;3.00;;;;;;;;;;1960169;73;21013;-60
2022/05/28 03:25:13;;;;;;;6.17;2.80;;;;;;;;;;1959983;73;21009;-60
2022/05/28 03:27:42;;;;;;;7.17;2.40;;;;;;;;;;1959985;72;21029;-60
2022/05/28 03:30:11;;;;;;;2.98;2.60;;;;;;;;;;1960064;73;21018;-60
2022/05/28 03:32:40;;;;;;;3.67;2.70;;;;;;;;;;1960113;73;21021;-60
2022/05/28 03:35:09;;;;;;;6.10;2.47;;;;;;;;;;1959933;73;21017;-60
2022/05/28 03:37:38;;;;;;;6.58;2.75;;;;;;;;;;1960173;73;21047;-60
2022/05/28 03:40:25;;;;;;;3.35;2.70;;;;;;;;;;1960198;73;21009;-60
2022/05/28 03:42:54;;;;;;;2.75;2.52;;;;;;;;;;1855818;76;21073;-60
2022/05/28 03:45:24;;;;;;;5.35;2.80;;;;;;;;;;1855755;76;21041;-60
2022/05/28 03:47:53;;;;;;;2.80;2.35;;;;;;;;;;1855770;77;21090;-60
2022/05/28 03:50:22;;;;;;;2.72;2.40;;;;;;;;;;1855639;77;21049;-60
2022/05/28 03:52:51;;;;;;;5.33;3.15;;;;;;;;;;1855617;76;21096;-60
2022/05/28 03:55:20;;;;;;;4.50;2.58;;;;;;;;;;1855604;76;21085;-60
2022/05/28 03:57:48;;;;;;;3.55;2.55;;;;;;;;;;1855564;76;21049;-61
2022/05/28 04:00:18;;;;;;;3.50;2.10;;;;;;;;;;1855674;77;21049;-61
2022/05/28 04:02:47;;;;;;;3.00;2.67;;;;;;;;;;1855564;76;21041;-60
2022/05/28 04:05:15;;;;;;;2.95;2.58;;;;;;;;;;1855603;77;21053;-61
2022/05/28 04:07:44;;;;;;;4.20;3.35;;;;;;;;;;1855572;76;21037;-60
2022/05/28 04:10:13;;;;;;;3.17;2.80;;;;;;;;;;1855640;77;21017;-60
2022/05/28 04:12:41;;;;;;;7.67;2.85;;;;;;;;;;1855701;76;21111;-60
2022/05/28 04:15:11;;;;;;;3.40;2.80;;;;;;;;;;1855671;76;21127;-61
2022/05/28 04:17:40;;;;;;;5.67;2.90;;;;;;;;;;1855664;77;21061;-60
2022/05/28 04:20:10;;;;;;;4.87;3.47;;;;;;;;;;1855653;76;21048;-60
2022/05/28 04:22:38;;;;;;;10.08;5.10;;;;;;;;;;1855584;76;21107;-60
2022/05/28 04:25:08;;;;;;;21.00;7.15;;;;;;;;;;1855471;77;21107;-61
2022/05/28 04:27:38;;;;;;;27.73;11.35;;;;;;;;;;1855560;77;21017;-60
2022/05/28 04:30:07;;;;;;;34.10;14.33;;;;;;;;;;1855490;77;21132;-60
2022/05/28 04:32:35;;;;;;;34.85;14.95;;;;;;;;;;1855549;77;21049;-61
2022/05/28 04:35:04;;;;;;;30.70;15.85;;;;;;;;;;1855540;77;21111;-60
2022/05/28 04:37:33;;;;;;;40.40;20.40;;;;;;;;;;1855511;77;21115;-60
2022/05/28 04:40:02;;;;;;;33.38;17.23;;;;;;;;;;1855542;77;21049;-60
2022/05/28 04:42:31;;;;;;;45.70;21.57;;;;;;;;;;1857672;76;21053;-61
2022/05/28 04:45:00;;;;;;;50.35;23.87;;;;;;;;;;1858700;77;21065;-61
2022/05/28 04:47:28;;;;;;;40.28;19.45;;;;;;;;;;1858544;77;21009;-61
2022/05/28 04:49:57;;;;;;;31.80;16.50;;;;;;;;;;1858452;77;21123;-61
2022/05/28 04:52:26;;;;;;;27.95;15.18;;;;;;;;;;1858679;77;21049;-60
2022/05/28 04:54:55;;;;;;;39.05;16.42;;;;;;;;;;1858592;77;21429;-61
2022/05/28 04:57:23;;;;;;;32.98;16.80;;;;;;;;;;1858551;77;21111;-60
2022/05/28 04:59:52;;;;;;;24.30;13.55;;;;;;;;;;1858519;77;21053;-60
2022/05/28 05:02:21;;;;;;;30.48;15.03;;;;;;;;;;1858705;77;21119;-60
2022/05/28 05:04:51;;;;;;;26.73;15.03;;;;;;;;;;1858372;77;21152;-61
2022/05/28 05:07:20;;;;;;;26.20;12.50;;;;;;;;;;1858353;76;21146;-60
2022/05/28 05:09:49;;;;;;;22.98;13.50;;;;;;;;;;1858404;77;21111;-60
2022/05/28 05:12:17;;;;;;;30.82;13.08;;;;;;;;;;1858461;77;21114;-60
2022/05/28 05:14:46;;;;;;;21.55;12.23;;;;;;;;;;1858414;77;21020;-61
2022/05/28 05:17:15;;;;;;;20.72;10.55;;;;;;;;;;1858405;77;21045;-60
2022/05/28 05:19:44;;;;;;;21.77;10.00;;;;;;;;;;1858452;77;21123;-60
2022/05/28 05:22:13;;;;;;;17.85;8.43;;;;;;;;;;1858508;77;21064;-61
2022/05/28 05:24:41;;;;;;;14.30;8.40;;;;;;;;;;1858425;77;21045;-60
2022/05/28 05:27:10;;;;;;;20.60;7.95;;;;;;;;;;1858420;77;21076;-61
2022/05/28 05:29:39;;;;;;;13.80;8.38;;;;;;;;;;1857167;77;21080;-60
2022/05/28 05:32:08;;;;;;;11.95;7.20;;;;;;;;;;1858063;77;21037;-61
2022/05/28 05:34:37;;;;;;;8.15;4.92;;;;;;;;;;1846184;77;21084;-61
2022/05/28 05:37:06;;;;;;;7.97;3.85;;;;;;;;;;1840225;78;21046;-61
2022/05/28 05:39:35;;;;;;;9.40;5.00;;;;;;;;;;1840257;78;21049;-61
2022/05/28 05:42:04;;;;;;;10.48;6.08;;;;;;;;;;1847394;77;21073;-61
2022/05/28 05:44:34;;;;;;;8.50;5.15;;;;;;;;;;1860565;77;21026;-61
2022/05/28 05:47:03;;;;;;;14.83;6.62;;;;;;;;;;1860106;77;21620;-61
2022/05/28 05:49:31;;;;;;;9.83;6.08;;;;;;;;;;1860221;77;21049;-60
2022/05/28 05:52:00;;;;;;;12.60;5.87;;;;;;;;;;1859954;77;21080;-61
2022/05/28 05:54:29;;;;;;;19.40;5.67;;;;;;;;;;1860168;77;21163;-60
2022/05/28 05:56:57;;;;;;;16.37;7.22;;;;;;;;;;1860618;77;21151;-61
2022/05/28 05:59:26;;;;;;;13.40;7.40;;;;;;;;;;1861025;77;21101;-61
2022/05/28 06:01:55;;;;;;;12.55;6.12;;;;;;;;;;1860924;77;21045;-61
2022/05/28 06:04:24;;;;;;;12.20;7.25;;;;;;;;;;1861013;77;21017;-61
2022/05/28 06:06:53;;;;;;;11.85;5.25;;;;;;;;;;1860887;77;21108;-60
2022/05/28 06:09:22;;;;;;;11.85;5.12;;;;;;;;;;1860884;77;21123;-60
2022/05/28 06:11:52;;;;;;;5.30;3.27;;;;;;;;;;1860992;77;21050;-61
2022/05/28 06:14:21;;;;;;;6.10;3.55;;;;;;;;;;1861083;77;21053;-60
2022/05/28 06:16:50;;;;;;;5.03;2.27;;;;;;;;;;1861074;77;21151;-60
2022/05/28 06:19:18;;;;;;;3.90;2.30;;;;;;;;;;1861083;77;21115;-60
2022/05/28 06:21:47;;;;;;;3.37;2.33;;;;;;;;;;1861028;77;21042;-60
2022/05/28 06:24:16;;;;;;;5.00;2.20;;;;;;;;;;1860927;77;21103;-60
2022/05/28 06:26:44;;;;;;;2.33;2.12;;;;;;;;;;1860941;77;21061;-60
2022/05/28 06:29:13;;;;;;;4.47;1.85;;;;;;;;;;1860913;77;21017;-61
2022/05/28 06:31:42;;;;;;;3.72;1.65;;;;;;;;;;1861033;77;21017;-61
2022/05/28 06:34:10;;;;;;;2.77;1.98;;;;;;;;;;1860862;77;21097;-60
2022/05/28 06:36:39;;;;;;;3.58;1.85;;;;;;;;;;1860989;77;21123;-60
2022/05/28 06:39:09;;;;;;;4.47;2.35;;;;;;;;;;1861033;77;21045;-60
2022/05/28 06:41:37;;;;;;;3.62;2.30;;;;;;;;;;1860941;77;21022;-60
2022/05/28 06:44:06;;;;;;;6.05;2.02;;;;;;;;;;1860839;77;21077;-60
2022/05/28 06:46:36;;;;;;;2.15;1.57;;;;;;;;;;1860884;77;21041;-60
2022/05/28 06:49:04;;;;;;;2.67;1.70;;;;;;;;;;1861122;77;21053;-60
2022/05/28 06:51:33;;;;;;;1.80;1.70;;;;;;;;;;1861261;77;21026;-60
2022/05/28 06:54:02;;;;;;;2.83;1.77;;;;;;;;;;1861142;77;21025;-61
2022/05/28 06:56:31;;;;;;;5.08;2.05;;;;;;;;;;1861127;77;21115;-61
2022/05/28 06:59:00;;;;;;;2.90;1.50;;;;;;;;;;1861104;77;21175;-61
2022/05/28 07:01:29;;;;;;;1.10;0.90;;;;;;;;;;1861024;77;21116;-61
2022/05/28 07:03:57;;;;;;;1.30;0.90;;;;;;;;;;1860984;77;21041;-60
2022/05/28 07:06:29;;;;;;;2.05;1.20;;;;;;;;;;1861016;77;21042;-60
2022/05/28 07:08:56;;;;;;;2.83;1.52;;;;;;;;;;1860847;77;21464;-60
2022/05/28 07:11:25;;;;;;;3.20;1.72;;;;;;;;;;1860849;77;21050;-61
2022/05/28 07:13:54;;;;;;;2.67;1.65;;;;;;;;;;1860815;77;21049;-61
2022/05/28 07:16:23;;;;;;;3.02;1.45;;;;;;;;;;1860936;77;21049;-61
2022/05/28 07:18:52;;;;;;;3.12;1.85;;;;;;;;;;1860799;77;21050;-61
2022/05/28 07:21:20;;;;;;;1.72;1.35;;;;;;;;;;1860966;77;21077;-61
2022/05/28 07:23:49;;;;;;;4.55;1.72;;;;;;;;;;1860942;77;21026;-61
2022/05/28 07:26:18;;;;;;;3.80;2.33;;;;;;;;;;1860980;77;21034;-61
2022/05/28 07:28:47;;;;;;;3.40;1.50;;;;;;;;;;1860894;77;21149;-61
2022/05/28 07:31:21;;;;;;;2.25;1.07;;;;;;;;;;1860842;77;21493;-60
2022/05/28 07:33:48;;;;;;;1.87;1.62;;;;;;;;;;1860190;76;21488;-61
2022/05/28 07:36:18;;;;;;;3.42;1.10;;;;;;;;;;1860847;77;21484;-61
2022/05/28 07:38:47;;;;;;;4.78;1.10;;;;;;;;;;1860706;77;21129;-61
2022/05/28 07:41:17;;;;;;;1.17;0.93;;;;;;;;;;1861025;77;21049;-61
2022/05/28 07:43:47;;;;;;;11.83;10.43;;;;;;;;;;1860837;77;21061;-61
2022/05/28 07:46:17;;;;;;;1.22;1.05;;;;;;;;;;1860886;77;21038;-61
2022/05/28 07:48:46;;;;;;;1.40;0.80;;;;;;;;;;1861018;77;21480;-61
2022/05/28 07:51:15;;;;;;;4.03;2.25;;;;;;;;;;1860952;77;21038;-61
2022/05/28 07:53:44;;;;;;;4.37;1.55;;;;;;;;;;1860875;77;21137;-61
2022/05/28 07:56:33;;;;;;;2.52;1.27;;;;;;;;;;1832940;78;21121;-60
2022/05/28 07:59:03;;;;;;;1.87;1.17;;;;;;;;;;1832959;78;21056;-60
2022/05/28 08:01:35;;;;;;;1.82;0.90;;;;;;;;;;1833031;78;21053;-61
2022/05/28 08:04:03;;;;;;;2.20;1.00;;;;;;;;;;1832862;78;21134;-60
2022/05/28 08:06:31;;;;;;;1.52;0.90;;;;;;;;;;1832974;78;21138;-60
2022/05/28 08:09:00;;;;;;;3.00;0.90;;;;;;;;;;1832852;78;21134;-60
2022/05/28 08:11:29;;;;;;;2.77;1.22;;;;;;;;;;1833127;78;21135;-61
2022/05/28 08:13:58;;;;;;;2.25;0.70;;;;;;;;;;1832991;78;21045;-61
2022/05/28 08:16:27;;;;;;;3.20;1.50;;;;;;;;;;1832985;78;21135;-60
2022/05/28 08:18:55;;;;;;;2.33;1.10;;;;;;;;;;1833078;78;21048;-60
2022/05/28 08:24:11;;;;;;;3.50;1.80;;;;;;;;;;1832951;78;21170;-61
2022/05/28 08:26:42;;;;;;;3.00;1.75;;;;;;;;;;1832899;78;21127;-60
2022/05/28 08:29:29;;;;;;;3.62;1.72;;;;;;;;;;1772197;80;21208;-60
2022/05/28 08:31:58;;;;;;;3.95;1.30;;;;;;;;;;1772224;80;21073;-60
2022/05/28 08:34:27;;;;;;;3.02;1.50;;;;;;;;;;1772404;80;21507;-60
2022/05/28 08:36:55;;;;;;;1.62;1.15;;;;;;;;;;1772312;81;21053;-60
2022/05/28 08:39:24;;;;;;;2.47;1.30;;;;;;;;;;1772185;81;21123;-60
2022/05/28 08:42:01;;;;;;;2.52;1.27;;;;;;;;;;1772484;80;21065;-60
2022/05/28 08:44:28;;;;;;;4.35;1.42;;;;;;;;;;1772289;80;21503;-61
2022/05/28 08:46:58;;;;;;;3.87;1.17;;;;;;;;;;1772337;80;21471;-60
2022/05/28 08:49:28;;;;;;;4.20;2.98;;;;;;;;;;1772419;81;21131;-60
2022/05/28 08:52:01;;;;;;;1.42;1.32;;;;;;;;;;1772228;80;21064;-61
2022/05/28 08:54:31;;;;;;;1.30;1.10;;;;;;;;;;1772386;80;21061;-60
2022/05/28 08:57:01;;;;;;;2.33;1.02;;;;;;;;;;1772402;80;21053;-61
2022/05/28 08:59:33;;;;;;;2.17;1.42;;;;;;;;;;1772221;80;21041;-61
2022/05/28 09:02:02;;;;;;;1.77;1.30;;;;;;;;;;1772331;80;21084;-60
2022/05/28 09:04:32;;;;;;;1.35;1.10;;;;;;;;;;1772262;81;21080;-60
2022/05/28 09:07:02;;;;;;;3.02;1.32;;;;;;;;;;1772440;80;21053;-61
2022/05/28 09:09:38;;;;;;;1.60;1.10;;;;;;;;;;1772434;80;21061;-61
2022/05/28 09:12:08;;;;;;;1.07;0.98;;;;;;;;;;1772351;81;21060;-61
2022/05/28 09:14:38;;;;;;;1.95;1.05;;;;;;;;;;1772390;80;21064;-61
2022/05/28 09:17:08;;;;;;;3.42;1.60;;;;;;;;;;1772409;80;21060;-61
2022/05/28 09:19:38;;;;;;;2.42;1.30;;;;;;;;;;1763502;80;21122;-61
2022/05/28 09:22:07;;;;;;;3.95;1.50;;;;;;;;;;1771897;80;21092;-61
2022/05/28 09:24:36;;;;;;;3.72;1.67;;;;;;;;;;1772250;81;21068;-61
2022/05/28 09:27:06;;;;;;;1.20;1.00;;;;;;;;;;1772176;80;21048;-61
2022/05/28 09:29:49;;;;;;;1.20;1.10;;;;;;;;;;1772325;79;21154;-60
2022/05/28 09:32:25;;;;;;;1.62;1.30;;;;;;;;;;1772198;80;21115;-61
2022/05/28 09:34:57;;;;;;;2.77;1.30;;;;;;;;;;1772369;80;21111;-61
2022/05/28 09:37:27;;;;;;;4.12;1.87;;;;;;;;;;1772147;80;21131;-60
2022/05/28 09:39:57;;;;;;;2.65;1.50;;;;;;;;;;1771715;80;21138;-60
2022/05/28 09:42:33;;;;;;;6.95;3.20;;;;;;;;;;1772239;80;21056;-60
2022/05/28 09:45:12;;;;;;;2.37;1.35;;;;;;;;;;1771868;80;21066;-60
2022/05/28 09:47:49;;;;;;;2.72;1.10;;;;;;;;;;1772358;81;21130;-60
2022/05/28 09:50:22;;;;;;;4.35;1.67;;;;;;;;;;1772235;80;21155;-59
2022/05/28 09:55:55;;;;;;;2.50;1.45;;;;;;;;;;1772318;81;21108;-59
2022/05/28 09:58:24;;;;;;;5.05;1.40;;;;;;;;;;1772428;80;21530;-60
2022/05/28 10:00:54;;;;;;;2.52;1.60;;;;;;;;;;1772426;81;21040;-60
2022/05/28 10:06:16;;;;;;;2.60;1.75;;;;;;;;;;1772314;80;21111;-60
2022/05/28 10:08:45;;;;;;;2.92;1.90;;;;;;;;;;1772260;81;21182;-60
2022/05/28 10:11:15;;;;;;;2.35;1.77;;;;;;;;;;1772292;80;21073;-59
2022/05/28 10:13:45;;;;;;;6.55;2.47;;;;;;;;;;1772412;81;21099;-60
2022/05/28 10:16:14;;;;;;;1.60;1.40;;;;;;;;;;1772333;80;21598;-60
2022/05/28 10:18:44;;;;;;;1.70;1.52;;;;;;;;;;1772349;80;21073;-60
2022/05/28 10:21:14;;;;;;;4.20;1.95;;;;;;;;;;1772231;80;21085;-60
2022/05/28 10:23:44;;;;;;;2.33;1.65;;;;;;;;;;1772460;80;21061;-60
2022/05/28 10:26:17;;;;;;;2.95;1.42;;;;;;;;;;1772479;81;21138;-60
2022/05/28 10:28:47;;;;;;;4.90;1.85;;;;;;;;;;1772265;79;21151;-60
2022/05/28 10:31:17;;;;;;;2.35;1.52;;;;;;;;;;1772416;80;21056;-61
2022/05/28 10:33:46;;;;;;;12.05;2.17;;;;;;;;;;1771816;81;21060;-61
2022/05/28 10:36:17;;;;;;;2.83;1.80;;;;;;;;;;1772423;81;21060;-61
2022/05/28 10:38:46;;;;;;;2.10;1.40;;;;;;;;;;1772291;81;21064;-60
2022/05/28 10:41:16;;;;;;;2.62;1.75;;;;;;;;;;1772367;80;21086;-60
2022/05/28 10:43:45;;;;;;;4.17;1.80;;;;;;;;;;1772242;81;21127;-60
2022/05/28 10:46:18;;;;;;;2.50;1.77;;;;;;;;;;1772209;80;21111;-60
2022/05/28 10:49:05;;;;;;;2.52;1.70;;;;;;;;;;1772439;81;21123;-60
2022/05/28 10:51:48;;;;;;;2.83;1.70;;;;;;;;;;1772193;80;21186;-60
2022/05/28 10:54:18;;;;;;;6.05;2.15;;;;;;;;;;1772304;80;21064;-60
2022/05/28 10:56:48;;;;;;;2.35;1.70;;;;;;;;;;1772209;80;21142;-60
2022/05/28 10:59:24;;;;;;;2.87;1.60;;;;;;;;;;1772123;80;21065;-60
2022/05/28 11:02:06;;;;;;;2.98;2.00;;;;;;;;;;1772135;81;21147;-61
2022/05/28 11:04:42;;;;;;;4.97;2.37;;;;;;;;;;1772195;81;21084;-60
2022/05/28 11:07:12;;;;;;;3.80;2.15;;;;;;;;;;1771945;80;21060;-60
2022/05/28 11:09:42;;;;;;;3.27;2.33;;;;;;;;;;1772318;80;21055;-60
2022/05/28 11:12:12;;;;;;;4.90;2.62;;;;;;;;;;1772223;80;21166;-60
2022/05/28 11:14:58;;;;;;;5.40;3.27;;;;;;;;;;1772327;80;21115;-60
2022/05/28 11:17:41;;;;;;;4.62;2.87;;;;;;;;;;1772249;80;21052;-60
2022/05/28 11:20:20;;;;;;;6.03;2.98;;;;;;;;;;1772365;80;21080;-60
2022/05/28 11:23:02;;;;;;;6.08;3.10;;;;;;;;;;1772382;80;21060;-60
2022/05/28 11:25:41;;;;;;;4.53;2.80;;;;;;;;;;1772321;80;21056;-60
2022/05/28 11:28:14;;;;;;;3.52;2.98;;;;;;;;;;1772081;80;21081;-60
2022/05/28 11:30:45;;;;;;;5.33;3.45;;;;;;;;;;1759346;80;21100;-60
2022/05/28 11:33:15;;;;;;;8.30;4.62;;;;;;;;;;1759040;80;21057;-60
2022/05/28 11:35:45;;;;;;;7.00;3.72;;;;;;;;;;1759090;80;21103;-60
2022/05/28 11:38:24;;;;;;;5.30;3.58;;;;;;;;;;1759077;80;21029;-60
2022/05/28 11:41:00;;;;;;;7.05;3.40;;;;;;;;;;1759060;80;21057;-61
2022/05/28 11:43:29;;;;;;;4.10;2.45;;;;;;;;;;1759046;80;21209;-61
2022/05/28 11:46:16;;;;;;;7.10;4.03;;;;;;;;;;1758896;80;21520;-61
2022/05/28 11:51:38;;;;;;;9.73;3.27;;;;;;;;;;1758937;80;21080;-60
2022/05/28 11:54:06;;;;;;;;;;;;;;;;;;1761666;81;21053;-60
2022/05/28 11:56:35;;;;;;;5.12;2.75;;;;;;;;;;1759027;81;20443;-60
2022/05/28 11:59:05;;;;;;;3.83;2.77;;;;;;;;;;1759070;81;21077;-60
2022/05/28 12:01:35;;;;;;;6.75;2.60;;;;;;;;;;1758809;80;21058;-60
2022/05/28 12:04:04;;;;;;;3.60;2.75;;;;;;;;;;1758832;80;21085;-60
2022/05/28 12:06:34;;;;;;;7.42;3.20;;;;;;;;;;1758967;80;21034;-60
2022/05/28 12:09:25;;;;;;;8.63;3.98;;;;;;;;;;1834865;77;21123;-60
2022/05/28 12:11:58;;;;;;;6.28;3.00;;;;;;;;;;1834932;78;21011;-60
2022/05/28 12:14:32;;;;;;;7.75;2.67;;;;;;;;;;1826946;78;21078;-60
2022/05/28 12:19:54;;;;;;;3.87;2.50;;;;;;;;;;1823059;78;21140;-60
2022/05/28 12:22:24;;;;;;;51.60;6.37;;;;;;;;;;1822160;78;21075;-61
2022/05/28 12:25:05;;;;;;;4.95;3.25;;;;;;;;;;1822964;79;21113;-61
2022/05/28 12:27:37;;;;;;;3.52;2.55;;;;;;;;;;1823043;79;21515;-61
2022/05/28 12:30:11;;;;;;;4.00;2.80;;;;;;;;;;1822918;78;21140;-61
2022/05/28 12:32:44;;;;;;;4.17;2.42;;;;;;;;;;1821875;79;21094;-61
2022/05/28 12:35:17;;;;;;;2.90;2.20;;;;;;;;;;1822980;79;21043;-61
2022/05/28 12:37:53;;;;;;;6.70;2.80;;;;;;;;;;1823017;78;21043;-61
2022/05/28 12:40:23;;;;;;;6.12;2.85;;;;;;;;;;1822916;78;21043;-61
2022/05/28 12:42:53;;;;;;;3.95;2.72;;;;;;;;;;1823026;79;21043;-61
2022/05/28 12:45:38;;;;;;;4.87;2.62;;;;;;;;;;1823003;78;21121;-61
2022/05/28 12:48:08;;;;;;;6.95;3.25;;;;;;;;;;1822696;78;21101;-61
2022/05/28 12:53:52;;;;;;;5.60;2.98;;;;;;;;;;1879669;75;21005;-61
2022/05/28 12:56:28;;;;;;;3.37;2.35;;;;;;;;;;1879618;76;21024;-62
2022/05/28 12:59:10;;;;;;;5.15;2.30;;;;;;;;;;1879637;75;21086;-61
2022/05/28 13:01:39;;;;;;;3.27;2.12;;;;;;;;;;1879620;76;21016;-61
2022/05/28 13:04:15;;;;;;;3.27;2.47;;;;;;;;;;1879544;76;21102;-61
2022/05/28 13:06:48;;;;;;;3.12;2.45;;;;;;;;;;1879542;75;21048;-61
2022/05/28 13:09:20;;;;;;;4.92;2.60;;;;;;;;;;1879634;75;21455;-61
2022/05/28 13:11:50;;;;;;;4.17;2.72;;;;;;;;;;1879474;75;21020;-61
2022/05/28 13:14:35;;;;;;;4.87;3.20;;;;;;;;;;1879554;75;21102;-61
2022/05/28 13:17:21;;;;;;;8.08;2.95;;;;;;;;;;1879605;76;21091;-61
2022/05/28 13:19:52;;;;;;;3.22;2.42;;;;;;;;;;1879555;75;21048;-61
2022/05/28 13:22:38;;;;;;;3.25;2.25;;;;;;;;;;1879433;75;21052;-62
2022/05/28 13:25:08;;;;;;;5.08;3.12;;;;;;;;;;1879586;76;21028;-61
2022/05/28 13:27:38;;;;;;;4.45;3.40;;;;;;;;;;1879539;75;21086;-62
2022/05/28 13:30:08;;;;;;;5.92;3.33;;;;;;;;;;1879659;75;21028;-62
2022/05/28 13:32:44;;;;;;;6.47;3.10;;;;;;;;;;1879458;75;20997;-62
2022/05/28 13:35:14;;;;;;;4.95;2.92;;;;;;;;;;1879564;75;21028;-62
2022/05/28 13:37:44;;;;;;;9.45;4.33;;;;;;;;;;1879468;75;21020;-62
2022/05/28 13:40:14;;;;;;;7.58;3.00;;;;;;;;;;1879617;75;21420;-62
2022/05/28 13:42:42;;;;;;;6.70;2.47;;;;;;;;;;1879672;76;21000;-62
2022/05/28 13:45:11;;;;;;;3.92;2.83;;;;;;;;;;1879629;75;21016;-62
2022/05/28 13:47:41;;;;;;;9.20;3.35;;;;;;;;;;1879602;75;21118;-62
2022/05/28 13:50:11;;;;;;;4.75;3.02;;;;;;;;;;1879531;75;21106;-62
2022/05/28 13:52:41;;;;;;;3.75;2.77;;;;;;;;;;1879696;75;21162;-62
2022/05/28 13:55:10;;;;;;;8.05;2.98;;;;;;;;;;1879630;75;21101;-62
2022/05/28 13:57:43;;;;;;;3.58;2.67;;;;;;;;;;1879915;75;21492;-62
2022/05/28 14:00:13;;;;;;;4.78;2.72;;;;;;;;;;1879999;75;21029;-62
2022/05/28 14:02:41;;;;;;;4.08;2.80;;;;;;;;;;1879308;75;21095;-62
2022/05/28 14:05:10;;;;;;;4.28;2.60;;;;;;;;;;1879886;76;21124;-62
2022/05/28 14:07:42;;;;;;;5.85;3.12;;;;;;;;;;1879754;76;21103;-62
2022/05/28 14:10:15;;;;;;;4.70;2.27;;;;;;;;;;1879853;75;21090;-63
2022/05/28 14:12:44;;;;;;;5.00;2.70;;;;;;;;;;1879730;76;21022;-62
2022/05/28 14:15:17;;;;;;;4.20;2.72;;;;;;;;;;1879837;75;21018;-63
2022/05/28 14:17:46;;;;;;;5.37;2.58;;;;;;;;;;1879801;76;21053;-62
2022/05/28 14:20:16;;;;;;;4.55;2.20;;;;;;;;;;1879801;76;21089;-62
2022/05/28 14:22:46;;;;;;;3.45;2.05;;;;;;;;;;1879839;76;21073;-63
2022/05/28 14:25:16;;;;;;;3.85;2.60;;;;;;;;;;1879809;76;21099;-62
2022/05/28 14:27:45;;;;;;;4.60;2.55;;;;;;;;;;1871554;75;21058;-63
2022/05/28 14:30:16;;;;;;;2.95;2.45;;;;;;;;;;1879990;76;21017;-63
2022/05/28 14:32:45;;;;;;;5.40;2.10;;;;;;;;;;1879964;76;21464;-63
2022/05/28 14:35:15;;;;;;;2.92;1.90;;;;;;;;;;1880019;76;21091;-63
2022/05/28 14:37:44;;;;;;;3.80;2.65;;;;;;;;;;1879320;76;21111;-62
2022/05/28 14:40:23;;;;;;;3.17;2.17;;;;;;;;;;1879961;76;21021;-62
2022/05/28 14:42:53;;;;;;;10.68;2.92;;;;;;;;;;1879974;76;21018;-62
2022/05/28 14:45:25;;;;;;;4.00;2.55;;;;;;;;;;1879898;75;21143;-62
2022/05/28 14:47:55;;;;;;;3.72;2.30;;;;;;;;;;1879970;76;21116;-62
2022/05/28 14:50:25;;;;;;;4.28;2.70;;;;;;;;;;1879867;76;21021;-62
2022/05/28 14:52:54;;;;;;;7.50;2.55;;;;;;;;;;1878443;75;21577;-62
2022/05/28 14:55:27;;;;;;;3.72;2.30;;;;;;;;;;1876304;76;21029;-62
2022/05/28 14:58:15;;;;;;;3.27;2.80;;;;;;;;;;1876212;76;21080;-62
2022/05/28 15:00:44;;;;;;;6.83;3.83;;;;;;;;;;1876420;76;21018;-62
2022/05/28 15:03:17;;;;;;;4.22;2.87;;;;;;;;;;1876234;75;21033;-62
2022/05/28 15:05:46;;;;;;;4.28;3.00;;;;;;;;;;1876343;76;21002;-62
2022/05/28 15:08:23;;;;;;;4.15;2.85;;;;;;;;;;1876315;76;21151;-62
2022/05/28 15:10:57;;;;;;;4.97;2.90;;;;;;;;;;1876104;76;21100;-62
2022/05/28 15:13:27;;;;;;;6.42;3.05;;;;;;;;;;1875668;75;21475;-62
2022/05/28 15:15:57;;;;;;;6.20;3.12;;;;;;;;;;1876140;76;21026;-62
2022/05/28 15:18:27;;;;;;;3.62;2.90;;;;;;;;;;1876181;76;21022;-62
2022/05/28 15:20:57;;;;;;;3.50;2.90;;;;;;;;;;1876151;75;21143;-62